createdAt,value
2019-04-30T00:06:34.652Z,2.10
2019-04-30T00:16:38.837Z,1.40
2019-04-30T00:26:45.028Z,1.50
2019-04-30T00:36:48.084Z,2.47
2019-04-30T00:46:52.038Z,1.80
2019-04-30T00:56:57.459Z,1.83
2019-04-30T01:07:05.245Z,1.77
2019-04-30T01:17:08.879Z,1.90
2019-04-30T01:27:11.764Z,1.57
2019-04-30T01:37:14.446Z,2.20
2019-04-30T01:47:21.457Z,1.63
2019-04-30T01:57:29.954Z,1.70
2019-04-30T02:07:33.749Z,1.97
2019-04-30T02:17:38.817Z,1.90
2019-04-30T02:27:42.697Z,2.10
2019-04-30T02:48:29.241Z,1.70
2019-04-30T02:58:32.665Z,1.80
2019-04-30T03:08:35.236Z,1.90
2019-04-30T03:19:03.925Z,1.77
2019-04-30T03:29:06.491Z,1.87
2019-04-30T03:39:11.024Z,2.40
2019-04-30T03:49:14.619Z,2.37
2019-04-30T03:59:19.719Z,2.27
2019-04-30T04:09:40.190Z,2.20
2019-04-30T04:19:43.675Z,2.50
2019-04-30T04:29:47.007Z,3.23
2019-04-30T04:39:50.458Z,4.60
2019-04-30T04:49:55.529Z,4.30
2019-04-30T05:00:03.475Z,4.00
2019-04-30T05:10:09.206Z,3.37
2019-04-30T05:20:12.302Z,3.30
2019-04-30T05:30:15.789Z,3.83
2019-04-30T05:40:20.633Z,4.00
2019-04-30T05:50:24.376Z,4.17
2019-04-30T06:00:30.457Z,4.33
2019-04-30T06:10:39.699Z,3.93
2019-04-30T06:20:42.255Z,4.23
2019-04-30T06:30:46.243Z,4.50
2019-04-30T06:40:48.981Z,4.43
2019-04-30T06:50:52.192Z,4.80
2019-04-30T07:00:55.512Z,4.97
2019-04-30T07:11:08.548Z,4.50
2019-04-30T07:21:08.790Z,4.30
2019-04-30T07:31:14.704Z,4.50
2019-04-30T07:41:18.869Z,3.80
2019-04-30T07:51:23.489Z,2.07
2019-04-30T08:01:29.034Z,2.80
2019-04-30T08:11:34.530Z,1.40
2019-04-30T08:21:38.750Z,1.57
2019-04-30T08:31:42.090Z,1.73
2019-04-30T08:41:45.332Z,1.60
2019-04-30T08:51:50.080Z,1.87
2019-04-30T09:01:53.020Z,1.83
2019-04-30T09:11:55.975Z,2.27
2019-04-30T09:21:59.093Z,2.17
2019-04-30T09:32:02.222Z,1.90
2019-04-30T09:42:04.925Z,2.20
2019-04-30T09:52:09.110Z,1.47
2019-04-30T10:02:13.012Z,2.07
2019-04-30T10:12:16.686Z,1.73
2019-04-30T10:22:21.322Z,2.00
2019-04-30T10:32:26.049Z,3.07
2019-04-30T10:42:30.258Z,1.87
2019-04-30T10:52:35.094Z,1.30
2019-04-30T11:02:41.118Z,1.03
2019-04-30T11:12:44.049Z,1.30
2019-04-30T11:22:48.985Z,1.07
2019-04-30T11:32:51.946Z,1.10
2019-04-30T11:42:55.609Z,1.00
2019-04-30T11:53:13.998Z,3.03
2019-04-30T12:03:09.336Z,1.13
2019-04-30T12:13:18.394Z,0.90
2019-04-30T12:23:23.516Z,1.40
2019-04-30T12:33:27.173Z,0.87
2019-04-30T12:43:34.035Z,0.80
2019-04-30T12:53:44.382Z,0.70
2019-04-30T13:03:58.126Z,0.67
2019-04-30T13:13:54.076Z,1.00
2019-04-30T13:23:57.210Z,1.23
2019-04-30T13:44:39.581Z,0.43
2019-04-30T13:54:42.168Z,0.50
2019-04-30T14:04:50.612Z,0.70
2019-04-30T14:14:53.569Z,0.77
2019-04-30T14:24:58.651Z,0.53
2019-04-30T14:35:08.952Z,0.80
2019-04-30T14:45:21.597Z,0.50
2019-04-30T14:55:29.362Z,0.70
2019-04-30T15:05:39.137Z,1.10
2019-04-30T15:15:39.101Z,2.17
2019-04-30T15:25:42.362Z,1.07
2019-04-30T15:35:45.854Z,1.50
2019-04-30T15:45:49.976Z,1.40
2019-04-30T15:55:52.798Z,1.33
2019-04-30T16:05:57.522Z,1.93
2019-04-30T16:16:01.176Z,1.63
2019-04-30T16:26:04.959Z,3.20
2019-04-30T16:36:09.112Z,2.70
2019-04-30T16:46:12.352Z,2.03
2019-04-30T16:56:18.575Z,2.30
2019-04-30T17:06:23.438Z,2.73
2019-04-30T17:16:26.295Z,2.53
2019-04-30T17:26:29.734Z,2.57
2019-04-30T17:36:36.224Z,2.30
2019-04-30T17:46:38.817Z,1.80
2019-04-30T17:56:44.128Z,1.87
2019-04-30T18:06:48.401Z,1.73
2019-04-30T18:16:52.714Z,2.50
2019-04-30T18:26:57.341Z,1.37
2019-04-30T18:37:00.849Z,1.07
2019-04-30T18:47:04.339Z,1.10
2019-04-30T18:57:07.672Z,1.37
2019-04-30T19:07:31.775Z,1.40
2019-04-30T19:17:40.157Z,0.83
2019-04-30T19:27:43.427Z,1.17
2019-04-30T19:37:48.579Z,1.10
2019-04-30T19:47:53.932Z,1.10
2019-04-30T19:57:56.796Z,1.20
2019-04-30T20:08:02.597Z,1.13
2019-04-30T20:18:05.432Z,1.73
2019-04-30T20:28:08.869Z,1.30
2019-04-30T20:38:16.956Z,1.60
2019-04-30T20:48:20.335Z,1.07
2019-04-30T20:58:22.921Z,1.10
2019-04-30T21:08:27.202Z,0.77
2019-04-30T21:18:32.031Z,0.93
2019-04-30T21:28:36.369Z,0.83
2019-04-30T21:38:39.084Z,1.30
2019-04-30T21:48:44.303Z,0.97
2019-04-30T21:58:46.846Z,1.17
2019-04-30T22:08:52.919Z,1.80
2019-04-30T22:18:55.473Z,1.90
2019-04-30T22:29:01.240Z,1.60
2019-04-30T22:39:11.975Z,1.50
2019-04-30T22:49:16.725Z,1.60
2019-04-30T22:59:20.826Z,1.50
2019-04-30T23:09:24.630Z,1.23
2019-04-30T23:19:30.322Z,0.70
2019-04-30T23:29:33.068Z,0.60
2019-04-30T23:39:35.760Z,0.70
2019-04-30T23:49:38.310Z,0.60
2019-04-30T23:59:45.590Z,0.73
